createdAt,value
2023-03-06T00:00:40.138Z,68.45
2023-03-06T00:03:08.009Z,68.38
2023-03-06T00:05:35.631Z,68.61
2023-03-06T00:08:05.780Z,68.94
2023-03-06T00:10:33.899Z,68.66
2023-03-06T00:13:05.899Z,68.44
2023-03-06T00:15:33.637Z,68.26
2023-03-06T00:18:03.701Z,68.19
2023-03-06T00:20:33.242Z,68.20
2023-03-06T00:23:00.963Z,67.71
2023-03-06T00:25:28.822Z,67.77
2023-03-06T00:27:56.464Z,67.35
2023-03-06T00:30:25.791Z,67.36
2023-03-06T00:32:54.498Z,67.22
2023-03-06T00:35:22.273Z,66.85
2023-03-06T00:37:50.002Z,67.11
2023-03-06T00:40:21.473Z,67.38
2023-03-06T00:42:52.086Z,67.20
2023-03-06T00:45:22.465Z,66.86
2023-03-06T00:47:50.265Z,66.63
2023-03-06T00:50:17.941Z,66.91
2023-03-06T00:52:45.525Z,66.47
2023-03-06T00:55:13.194Z,66.27
2023-03-06T00:57:43.084Z,66.74
2023-03-06T01:00:12.304Z,66.30
2023-03-06T01:02:40.191Z,66.33
2023-03-06T01:05:11.233Z,65.91
2023-03-06T01:07:38.933Z,65.87
2023-03-06T01:10:11.452Z,65.89
2023-03-06T01:12:39.008Z,65.97
2023-03-06T01:15:09.164Z,65.69
2023-03-06T01:17:36.992Z,65.31
2023-03-06T01:20:05.925Z,65.67
2023-03-06T01:22:33.593Z,65.55
2023-03-06T01:25:01.248Z,65.34
2023-03-06T01:27:28.882Z,65.70
2023-03-06T01:29:56.598Z,66.26
2023-03-06T01:32:26.725Z,66.48
2023-03-06T01:34:54.397Z,66.24
2023-03-06T01:37:22.000Z,66.32
2023-03-06T01:39:51.792Z,66.60
2023-03-06T01:42:19.393Z,66.69
2023-03-06T01:45:02.302Z,66.90
2023-03-06T01:47:29.979Z,66.79
2023-03-06T01:49:58.915Z,66.31
2023-03-06T01:52:40.124Z,66.53
2023-03-06T01:55:15.866Z,66.37
2023-03-06T01:57:50.097Z,66.82
2023-03-06T02:00:24.792Z,67.07
2023-03-06T02:03:15.536Z,66.41
2023-03-06T02:05:44.763Z,66.78
2023-03-06T02:08:15.433Z,66.47
2023-03-06T02:11:18.348Z,66.38
2023-03-06T02:13:47.156Z,66.36
2023-03-06T02:16:16.947Z,66.54
2023-03-06T02:18:46.837Z,65.84
2023-03-06T02:21:46.647Z,65.74
2023-03-06T02:24:14.206Z,66.12
2023-03-06T02:26:44.227Z,65.98
2023-03-06T02:29:12.256Z,65.54
2023-03-06T02:31:39.959Z,65.71
2023-03-06T02:34:30.364Z,65.63
2023-03-06T02:37:09.963Z,65.20
2023-03-06T02:39:42.613Z,64.75
2023-03-06T02:42:10.285Z,64.79
2023-03-06T02:44:40.510Z,64.63
2023-03-06T02:47:10.893Z,64.90
2023-03-06T02:49:40.807Z,64.48
2023-03-06T02:52:09.023Z,64.43
2023-03-06T02:54:36.789Z,64.53
2023-03-06T02:57:04.442Z,64.26
2023-03-06T02:59:32.116Z,64.32
2023-03-06T03:02:00.057Z,63.92
2023-03-06T03:04:27.769Z,63.80
2023-03-06T03:06:57.887Z,64.03
2023-03-06T03:09:25.501Z,63.62
2023-03-06T03:11:53.196Z,63.43
2023-03-06T03:14:20.797Z,63.93
2023-03-06T03:16:48.497Z,64.29
2023-03-06T03:19:16.121Z,64.63
2023-03-06T03:21:43.772Z,64.53
2023-03-06T03:24:13.647Z,64.42
2023-03-06T03:26:41.321Z,64.50
2023-03-06T03:29:09.778Z,64.55
2023-03-06T03:31:37.961Z,64.52
2023-03-06T03:34:05.571Z,64.56
2023-03-06T03:36:33.216Z,64.68
2023-03-06T03:39:01.050Z,64.48
2023-03-06T03:41:28.654Z,64.37
2023-03-06T03:43:56.249Z,64.34
2023-03-06T03:46:23.866Z,64.50
2023-03-06T03:48:51.566Z,64.88
2023-03-06T03:51:19.298Z,65.10
2023-03-06T03:53:46.954Z,65.24
2023-03-06T03:56:14.901Z,65.50
2023-03-06T03:58:42.549Z,65.72
2023-03-06T04:01:12.619Z,65.34
2023-03-06T04:03:40.270Z,65.39
2023-03-06T04:06:08.263Z,66.05
2023-03-06T04:08:36.124Z,66.02
2023-03-06T04:11:04.115Z,66.15
2023-03-06T04:13:31.728Z,65.94
2023-03-06T04:16:00.126Z,66.06
2023-03-06T04:18:28.519Z,66.00
2023-03-06T04:20:58.692Z,66.20
2023-03-06T04:23:27.866Z,65.85
2023-03-06T04:25:55.605Z,65.99
2023-03-06T04:28:28.353Z,66.18
2023-03-06T04:30:58.513Z,66.71
2023-03-06T04:33:26.134Z,66.78
2023-03-06T04:35:53.806Z,67.13
2023-03-06T04:38:21.520Z,66.64
2023-03-06T04:40:49.820Z,66.79
2023-03-06T04:43:17.903Z,67.50
2023-03-06T04:45:45.726Z,67.64
2023-03-06T04:48:18.401Z,68.17
2023-03-06T04:50:46.483Z,68.30
2023-03-06T04:53:16.976Z,68.54
2023-03-06T04:55:44.591Z,68.70
2023-03-06T04:58:14.994Z,68.20
2023-03-06T05:00:46.264Z,69.02
2023-03-06T05:03:15.115Z,69.08
2023-03-06T05:05:45.984Z,69.93
2023-03-06T05:08:15.403Z,69.95
2023-03-06T05:10:45.120Z,69.58
2023-03-06T05:13:13.074Z,69.65
2023-03-06T05:15:43.860Z,70.34
2023-03-06T05:18:11.485Z,70.03
2023-03-06T05:20:41.249Z,70.57
2023-03-06T05:23:08.891Z,70.72
2023-03-06T05:25:36.566Z,70.31
2023-03-06T05:28:06.631Z,70.15
2023-03-06T05:30:34.386Z,70.32
2023-03-06T05:33:04.724Z,70.69
2023-03-06T05:35:32.706Z,71.31
2023-03-06T05:38:00.404Z,71.31
2023-03-06T05:40:28.175Z,71.65
2023-03-06T05:42:55.963Z,71.68
2023-03-06T05:45:25.782Z,71.55
2023-03-06T05:47:55.943Z,71.54
2023-03-06T05:50:23.502Z,71.78
2023-03-06T05:52:51.377Z,72.04
2023-03-06T05:55:22.614Z,71.40
2023-03-06T05:57:52.892Z,71.29
2023-03-06T06:00:25.717Z,71.36
2023-03-06T06:02:53.325Z,71.01
2023-03-06T06:05:22.904Z,70.97
2023-03-06T06:07:50.513Z,71.29
2023-03-06T06:10:18.253Z,71.41
2023-03-06T06:12:45.837Z,70.83
2023-03-06T06:15:14.672Z,71.36
2023-03-06T06:17:42.619Z,71.48
2023-03-06T06:20:10.771Z,71.32
2023-03-06T06:22:38.946Z,71.31
2023-03-06T06:25:07.806Z,71.04
2023-03-06T06:27:35.662Z,71.08
2023-03-06T06:30:07.912Z,71.01
2023-03-06T06:32:38.115Z,70.77
2023-03-06T06:35:06.321Z,70.49
2023-03-06T06:37:34.506Z,70.39
2023-03-06T06:40:02.513Z,70.41
2023-03-06T06:42:36.946Z,70.34
2023-03-06T06:45:10.792Z,70.16
2023-03-06T06:47:41.725Z,70.23
2023-03-06T06:50:15.111Z,70.36
2023-03-06T06:52:42.799Z,70.35
2023-03-06T06:55:11.901Z,70.08
2023-03-06T06:57:39.460Z,70.20
2023-03-06T07:00:10.572Z,70.22
2023-03-06T07:02:38.180Z,69.63
2023-03-06T07:05:06.525Z,69.61
2023-03-06T07:07:39.005Z,69.94
2023-03-06T07:10:12.376Z,69.89
2023-03-06T07:12:40.325Z,70.08
2023-03-06T07:15:08.599Z,70.40
2023-03-06T07:17:36.271Z,70.38
2023-03-06T07:20:05.995Z,70.20
2023-03-06T07:22:49.955Z,70.11
2023-03-06T07:25:22.425Z,69.87
2023-03-06T07:27:54.508Z,69.62
2023-03-06T07:30:25.803Z,69.85
2023-03-06T07:32:57.948Z,70.09
2023-03-06T07:35:26.150Z,70.43
2023-03-06T07:37:54.299Z,70.87
2023-03-06T07:40:22.419Z,70.40
2023-03-06T07:42:50.061Z,70.56
2023-03-06T07:45:17.816Z,70.99
2023-03-06T07:47:46.447Z,71.20
2023-03-06T07:50:16.558Z,70.89
2023-03-06T07:52:44.612Z,70.97
2023-03-06T07:55:14.864Z,70.99
2023-03-06T07:57:44.907Z,71.29
2023-03-06T08:00:16.948Z,71.59
2023-03-06T08:02:45.681Z,71.59
2023-03-06T08:05:17.680Z,71.59
2023-03-06T08:07:48.229Z,72.49
2023-03-06T08:10:17.863Z,71.61
2023-03-06T08:12:45.513Z,71.37
2023-03-06T08:15:13.772Z,71.18
2023-03-06T08:17:41.888Z,71.42
2023-03-06T08:20:11.437Z,71.95
2023-03-06T08:22:39.531Z,72.10
2023-03-06T08:25:10.595Z,72.15
2023-03-06T08:27:40.536Z,71.74
2023-03-06T08:30:11.334Z,71.57
2023-03-06T08:32:39.462Z,72.28
2023-03-06T08:35:07.818Z,71.31
2023-03-06T08:37:35.491Z,70.79
2023-03-06T08:40:04.813Z,70.13
2023-03-06T08:42:33.328Z,70.11
2023-03-06T08:45:00.900Z,69.90
2023-03-06T08:47:28.492Z,68.97
2023-03-06T08:49:56.130Z,68.42
2023-03-06T08:52:23.737Z,67.28
2023-03-06T08:54:53.884Z,66.28
2023-03-06T08:57:23.946Z,66.64
2023-03-06T08:59:51.538Z,66.61
2023-03-06T09:02:19.310Z,65.75
2023-03-06T09:04:46.948Z,66.09
2023-03-06T09:07:14.547Z,65.11
2023-03-06T09:09:42.679Z,65.20
2023-03-06T09:12:11.393Z,65.33
2023-03-06T09:14:40.444Z,63.33
2023-03-06T09:17:08.147Z,63.57
2023-03-06T09:19:35.875Z,63.36
2023-03-06T09:22:03.473Z,62.17
2023-03-06T09:24:31.123Z,63.84
2023-03-06T09:27:01.950Z,64.48
2023-03-06T09:29:29.880Z,64.27
2023-03-06T09:31:57.504Z,60.57
2023-03-06T09:34:25.118Z,59.55
2023-03-06T09:36:57.566Z,57.59
2023-03-06T09:39:27.248Z,56.74
2023-03-06T09:41:58.407Z,52.58
2023-03-06T09:44:28.633Z,53.80
2023-03-06T09:46:58.922Z,54.67
2023-03-06T09:49:44.635Z,55.01
2023-03-06T09:52:21.193Z,56.87
2023-03-06T09:54:52.703Z,58.00
2023-03-06T09:57:25.319Z,57.81
2023-03-06T09:59:56.488Z,57.69
2023-03-06T10:02:32.550Z,57.42
2023-03-06T10:05:04.077Z,57.17
2023-03-06T10:07:46.485Z,56.31
2023-03-06T10:10:44.019Z,58.81
2023-03-06T10:13:26.179Z,58.55
2023-03-06T10:16:01.483Z,59.56
2023-03-06T10:18:29.155Z,59.50
2023-03-06T10:21:17.270Z,59.78
2023-03-06T10:23:58.643Z,59.45
2023-03-06T10:26:32.737Z,60.54
2023-03-06T10:29:00.446Z,61.14
2023-03-06T10:31:29.874Z,61.42
2023-03-06T10:34:16.222Z,61.59
2023-03-06T10:36:43.858Z,61.43
2023-03-06T10:39:17.813Z,62.04
2023-03-06T10:41:46.281Z,62.20
2023-03-06T10:44:13.940Z,62.11
2023-03-06T10:46:43.054Z,61.95
2023-03-06T10:49:30.082Z,62.07
2023-03-06T10:52:02.029Z,61.97
2023-03-06T10:54:32.293Z,61.77
2023-03-06T10:57:19.459Z,61.48
2023-03-06T11:00:05.738Z,60.77
2023-03-06T11:02:41.443Z,61.16
2023-03-06T11:05:21.302Z,60.90
2023-03-06T11:07:59.884Z,60.35
2023-03-06T11:10:29.435Z,60.33
2023-03-06T11:13:02.661Z,60.54
2023-03-06T11:15:33.539Z,60.12
2023-03-06T11:18:25.326Z,60.27
2023-03-06T11:20:56.690Z,59.42
2023-03-06T11:23:38.454Z,59.92
2023-03-06T11:26:27.014Z,59.88
2023-03-06T11:29:15.218Z,59.77
2023-03-06T11:31:50.857Z,59.74
2023-03-06T11:34:35.736Z,59.51
2023-03-06T11:37:14.670Z,58.67
2023-03-06T11:39:48.002Z,58.42
2023-03-06T11:42:18.292Z,58.95
2023-03-06T11:45:10.233Z,58.34
2023-03-06T11:48:04.328Z,58.14
2023-03-06T11:50:40.633Z,58.45
2023-03-06T11:53:16.286Z,58.68
2023-03-06T11:56:15.103Z,58.72
2023-03-06T11:59:17.157Z,58.85
2023-03-06T12:01:53.902Z,58.57
2023-03-06T12:04:43.390Z,58.66
2023-03-06T12:07:10.940Z,58.77
2023-03-06T12:09:44.682Z,59.00
2023-03-06T12:12:12.209Z,58.88
2023-03-06T12:15:15.392Z,58.81
2023-03-06T12:17:59.869Z,58.31
2023-03-06T12:21:00.025Z,58.23
2023-03-06T12:23:45.826Z,58.15
2023-03-06T12:26:33.678Z,57.78
2023-03-06T12:29:28.067Z,57.76
2023-03-06T12:32:06.498Z,57.42
2023-03-06T12:35:23.491Z,57.35
2023-03-06T12:38:06.114Z,57.03
2023-03-06T12:40:54.643Z,57.46
2023-03-06T12:43:46.745Z,58.22
2023-03-06T12:46:21.468Z,58.34
2023-03-06T12:49:32.839Z,59.02
2023-03-06T12:52:02.515Z,59.27
2023-03-06T12:54:34.759Z,59.41
2023-03-06T12:57:12.497Z,59.39
2023-03-06T12:59:49.996Z,59.66
2023-03-06T13:03:01.022Z,59.60
2023-03-06T13:05:52.939Z,59.79
2023-03-06T13:08:32.803Z,59.97
2023-03-06T13:11:29.699Z,59.98
2023-03-06T13:13:58.208Z,60.31
2023-03-06T13:16:32.642Z,60.69
2023-03-06T13:19:34.105Z,60.51
2023-03-06T13:22:03.211Z,61.01
2023-03-06T13:24:32.888Z,61.20
2023-03-06T13:27:06.974Z,61.06
2023-03-06T13:29:37.646Z,61.86
2023-03-06T13:32:05.247Z,61.42
2023-03-06T13:34:32.774Z,62.25
2023-03-06T13:37:18.521Z,62.85
2023-03-06T13:39:55.151Z,63.21
2023-03-06T13:42:31.788Z,64.19
2023-03-06T13:45:09.121Z,63.38
2023-03-06T13:48:05.767Z,64.05
2023-03-06T13:50:31.742Z,64.51
2023-03-06T13:53:24.693Z,64.67
2023-03-06T13:55:59.741Z,65.13
2023-03-06T13:58:33.288Z,65.87
2023-03-06T14:01:20.239Z,65.83
2023-03-06T14:04:00.252Z,66.39
2023-03-06T14:06:50.362Z,67.23
2023-03-06T14:09:30.962Z,68.64
2023-03-06T14:12:18.170Z,67.93
2023-03-06T14:14:51.800Z,68.45
2023-03-06T14:17:26.685Z,67.92
2023-03-06T14:19:54.511Z,68.96
2023-03-06T14:22:25.808Z,69.01
2023-03-06T14:25:01.814Z,68.83
2023-03-06T14:27:43.519Z,68.84
2023-03-06T14:30:17.464Z,70.00
2023-03-06T14:32:46.107Z,70.72
2023-03-06T14:35:25.241Z,70.49
2023-03-06T14:37:59.765Z,70.81
2023-03-06T14:40:34.846Z,70.56
2023-03-06T14:43:22.102Z,70.95
2023-03-06T14:45:53.950Z,70.87
2023-03-06T14:48:22.091Z,71.29
2023-03-06T14:51:02.881Z,71.18
2023-03-06T14:53:35.272Z,72.32
2023-03-06T14:56:08.152Z,71.80
2023-03-06T14:58:44.070Z,72.07
2023-03-06T15:01:14.647Z,71.80
2023-03-06T15:03:51.618Z,71.63
2023-03-06T15:06:22.427Z,72.62
2023-03-06T15:09:07.870Z,72.21
2023-03-06T15:11:54.171Z,72.77
2023-03-06T15:14:49.277Z,72.52
2023-03-06T15:17:42.834Z,73.03
2023-03-06T15:20:48.066Z,73.13
2023-03-06T15:23:24.639Z,72.96
2023-03-06T15:25:56.413Z,73.05
2023-03-06T15:28:26.855Z,73.15
2023-03-06T15:31:21.906Z,73.99
2023-03-06T15:34:10.369Z,74.01
2023-03-06T15:36:42.365Z,74.19
2023-03-06T15:39:39.030Z,74.38
2023-03-06T15:42:42.208Z,74.06
2023-03-06T15:45:19.563Z,74.50
2023-03-06T15:47:49.211Z,75.00
2023-03-06T15:50:21.088Z,74.86
2023-03-06T15:52:52.243Z,74.99
2023-03-06T15:55:22.697Z,74.85
2023-03-06T15:57:56.608Z,75.57
2023-03-06T16:00:28.606Z,75.56
2023-03-06T16:02:57.214Z,74.93
2023-03-06T16:05:26.594Z,75.23
2023-03-06T16:07:54.921Z,76.08
2023-03-06T16:10:25.291Z,76.20
2023-03-06T16:12:57.877Z,76.24
2023-03-06T16:15:30.057Z,76.78
2023-03-06T16:18:01.087Z,76.51
2023-03-06T16:20:32.741Z,76.47
2023-03-06T16:23:01.172Z,76.35
2023-03-06T16:25:31.134Z,77.07
2023-03-06T16:27:59.535Z,77.47
2023-03-06T16:30:31.587Z,77.97
2023-03-06T16:33:00.211Z,77.30
2023-03-06T16:35:28.373Z,78.31
2023-03-06T16:37:56.116Z,77.80
2023-03-06T16:40:27.045Z,78.35
2023-03-06T16:42:55.285Z,78.48
2023-03-06T16:45:24.200Z,77.81
2023-03-06T16:47:52.506Z,78.36
2023-03-06T16:50:24.754Z,77.94
2023-03-06T16:52:53.922Z,78.02
2023-03-06T16:55:24.854Z,78.42
2023-03-06T16:57:53.158Z,78.42
2023-03-06T17:00:25.016Z,78.34
2023-03-06T17:02:53.457Z,78.37
2023-03-06T17:05:21.344Z,77.91
2023-03-06T17:07:50.344Z,77.95
2023-03-06T17:10:19.338Z,77.90
2023-03-06T17:12:47.043Z,78.15
2023-03-06T17:15:14.776Z,77.92
2023-03-06T17:17:42.390Z,78.41
2023-03-06T17:20:13.062Z,78.43
2023-03-06T17:22:43.218Z,78.46
2023-03-06T17:25:11.426Z,78.29
2023-03-06T17:27:39.315Z,78.75
2023-03-06T17:30:07.748Z,78.32
2023-03-06T17:32:35.626Z,78.84
2023-03-06T17:35:03.315Z,78.91
2023-03-06T17:37:32.544Z,78.76
2023-03-06T17:40:02.331Z,79.43
2023-03-06T17:42:30.990Z,78.93
2023-03-06T17:44:58.588Z,79.83
2023-03-06T17:47:26.401Z,79.38
2023-03-06T17:49:54.091Z,79.29
2023-03-06T17:52:26.214Z,79.66
2023-03-06T17:54:54.750Z,79.57
2023-03-06T17:57:22.433Z,79.36
2023-03-06T17:59:53.060Z,79.96
2023-03-06T18:02:21.015Z,79.63
2023-03-06T18:04:48.653Z,80.23
2023-03-06T18:07:16.758Z,80.09
2023-03-06T18:09:44.432Z,79.93
2023-03-06T18:12:14.680Z,80.13
2023-03-06T18:14:44.639Z,79.88
2023-03-06T18:17:12.204Z,80.30
2023-03-06T18:19:41.273Z,79.83
2023-03-06T18:22:08.976Z,79.83
2023-03-06T18:24:40.635Z,79.65
2023-03-06T18:27:08.666Z,79.63
2023-03-06T18:29:36.266Z,79.81
2023-03-06T18:32:04.329Z,79.68
2023-03-06T18:34:31.986Z,79.72
2023-03-06T18:36:59.590Z,79.67
2023-03-06T18:39:29.630Z,79.53
2023-03-06T18:41:57.236Z,79.68
2023-03-06T18:44:24.851Z,79.76
2023-03-06T18:46:52.504Z,79.78
2023-03-06T18:49:20.181Z,79.74
2023-03-06T18:51:48.179Z,79.97
2023-03-06T18:54:15.801Z,80.01
2023-03-06T18:56:45.775Z,79.87
2023-03-06T18:59:18.252Z,79.93
2023-03-06T19:01:47.579Z,80.21
2023-03-06T19:04:16.753Z,80.35
2023-03-06T19:06:44.712Z,81.56
2023-03-06T19:09:14.666Z,81.04
2023-03-06T19:11:42.941Z,81.11
2023-03-06T19:14:10.820Z,81.77
2023-03-06T19:16:38.445Z,81.81
2023-03-06T19:19:06.077Z,83.66
2023-03-06T19:21:36.019Z,83.15
2023-03-06T19:24:06.857Z,83.45
2023-03-06T19:26:37.086Z,84.95
2023-03-06T19:29:06.784Z,85.45
2023-03-06T19:31:34.702Z,85.21
2023-03-06T19:34:02.426Z,85.22
2023-03-06T19:36:33.563Z,85.50
2023-03-06T19:39:04.226Z,86.22
2023-03-06T19:41:32.678Z,85.87
2023-03-06T19:44:05.649Z,86.77
2023-03-06T19:46:36.146Z,86.88
2023-03-06T19:49:09.651Z,86.79
2023-03-06T19:51:37.259Z,86.99
2023-03-06T19:54:05.152Z,86.82
2023-03-06T19:56:33.731Z,86.95
2023-03-06T19:59:01.502Z,87.08
2023-03-06T20:01:34.128Z,86.90
2023-03-06T20:04:01.932Z,87.11
2023-03-06T20:06:34.231Z,87.39
2023-03-06T20:09:05.791Z,87.77
2023-03-06T20:11:35.570Z,88.02
2023-03-06T20:14:07.675Z,88.57
2023-03-06T20:16:36.234Z,88.37
2023-03-06T20:19:07.387Z,88.33
2023-03-06T20:21:37.862Z,88.69
2023-03-06T20:24:09.290Z,88.86
2023-03-06T20:26:38.126Z,88.78
2023-03-06T20:29:05.842Z,88.96
2023-03-06T20:31:33.720Z,89.14
2023-03-06T20:34:01.370Z,88.53
2023-03-06T20:36:35.949Z,88.83
2023-03-06T20:39:12.220Z,88.63
2023-03-06T20:41:40.468Z,88.63
2023-03-06T20:44:11.995Z,89.11
2023-03-06T20:46:41.300Z,89.32
2023-03-06T20:49:10.088Z,89.24
2023-03-06T20:51:39.346Z,88.75
2023-03-06T20:54:13.531Z,88.92
2023-03-06T20:56:43.277Z,89.13
2023-03-06T20:59:14.288Z,89.23
2023-03-06T21:01:44.055Z,89.22
2023-03-06T21:04:14.242Z,89.33
2023-03-06T21:06:45.340Z,88.98
2023-03-06T21:09:14.806Z,88.77
2023-03-06T21:11:42.471Z,88.83
2023-03-06T21:14:10.824Z,88.21
2023-03-06T21:16:38.510Z,88.26
2023-03-06T21:19:06.289Z,88.51
2023-03-06T21:21:36.168Z,88.57
2023-03-06T21:24:03.899Z,88.19
2023-03-06T21:26:34.711Z,88.16
2023-03-06T21:29:03.242Z,88.26
2023-03-06T21:31:35.383Z,88.16
2023-03-06T21:34:05.040Z,88.11
2023-03-06T21:36:33.388Z,88.36
2023-03-06T21:39:01.076Z,88.68
2023-03-06T21:41:33.899Z,88.87
2023-03-06T21:44:03.790Z,88.90
2023-03-06T21:46:33.341Z,88.91
2023-03-06T21:49:03.788Z,89.57
2023-03-06T21:51:31.380Z,89.77
2023-03-06T21:53:59.056Z,90.18
2023-03-06T21:56:29.028Z,89.93
2023-03-06T21:58:58.268Z,89.91
2023-03-06T22:01:28.403Z,90.17
2023-03-06T22:03:56.572Z,90.07
2023-03-06T22:06:29.533Z,90.11
2023-03-06T22:08:59.019Z,89.91
2023-03-06T22:11:31.338Z,90.04
2023-03-06T22:13:59.104Z,89.85
2023-03-06T22:16:26.707Z,89.90
2023-03-06T22:18:54.391Z,90.17
2023-03-06T22:21:23.444Z,90.27
2023-03-06T22:23:57.229Z,90.22
2023-03-06T22:26:30.258Z,90.50
2023-03-06T22:28:58.488Z,90.51
2023-03-06T22:31:28.517Z,90.42
2023-03-06T22:33:58.382Z,90.37
2023-03-06T22:36:26.829Z,90.30
2023-03-06T22:38:56.656Z,90.36
2023-03-06T22:41:26.760Z,90.63
2023-03-06T22:43:58.135Z,90.74
2023-03-06T22:46:29.128Z,90.82
2023-03-06T22:48:57.992Z,90.72
2023-03-06T22:51:26.837Z,90.95
2023-03-06T22:53:54.460Z,91.20
2023-03-06T22:56:23.467Z,91.18
2023-03-06T22:58:53.440Z,91.27
2023-03-06T23:01:25.171Z,91.36
2023-03-06T23:03:55.667Z,91.42
2023-03-06T23:06:30.681Z,91.26
2023-03-06T23:09:07.738Z,91.16
2023-03-06T23:11:38.310Z,91.09
2023-03-06T23:14:06.366Z,91.29
2023-03-06T23:16:34.615Z,91.32
2023-03-06T23:19:02.256Z,91.38
2023-03-06T23:21:29.858Z,91.68
2023-03-06T23:23:57.690Z,91.86
2023-03-06T23:26:27.597Z,92.10
2023-03-06T23:28:56.422Z,92.38
2023-03-06T23:31:28.539Z,92.65
2023-03-06T23:34:00.817Z,92.70
2023-03-06T23:36:29.569Z,92.81
2023-03-06T23:38:57.437Z,92.82
2023-03-06T23:41:25.845Z,92.95
2023-03-06T23:43:55.272Z,92.83
2023-03-06T23:46:23.758Z,92.97
2023-03-06T23:48:51.452Z,93.02
2023-03-06T23:51:21.840Z,93.07
2023-03-06T23:53:56.201Z,93.05
2023-03-06T23:56:24.948Z,93.30
2023-03-06T23:58:55.318Z,93.34
